Time;durP1;ratioP1;P1;durP2;ratioP2;P2;SDS_P1;SDS_P2;PMS_P1;PMS_P2;Temp;Humidity;BMP_temperature;BMP_pressure;BME280_temperature;BME280_humidity;BME280_pressure;Samples;Min_cycle;Max_cycle;Signal;HPM_P1;HPM_P2
2021/07/02 00:02:14;;;;;;;5.17;3.00;;;;;;;19.82;64.54;100215.94;1707135;82;26699;-76
2021/07/02 00:04:41;;;;;;;2.55;2.20;;;;;;;19.81;64.45;100219.75;1665865;83;27527;-76
2021/07/02 00:07:08;;;;;;;3.72;2.35;;;;;;;19.81;64.73;100225.72;1707193;82;26769;-76
2021/07/02 00:09:35;;;;;;;6.22;2.17;;;;;;;19.77;64.81;100225.95;1665538;83;25868;-77
2021/07/02 00:12:02;;;;;;;2.90;2.20;;;;;;;19.74;64.81;100221.84;1706467;82;25910;-77
2021/07/02 00:14:29;;;;;;;2.35;2.15;;;;;;;19.73;64.85;100222.94;1653698;83;25928;-76
2021/07/02 00:16:56;;;;;;;2.87;1.92;;;;;;;19.70;64.96;100223.96;1706659;82;28224;-76
2021/07/02 00:19:25;;;;;;;5.08;2.20;;;;;;;19.65;65.10;100222.00;1717420;83;25843;-76
2021/07/02 00:21:52;;;;;;;2.75;1.98;;;;;;;19.62;65.25;100213.55;1700876;81;25850;-76
2021/07/02 00:24:19;;;;;;;3.42;1.77;;;;;;;19.59;65.40;100218.95;1693571;83;26528;-77
2021/07/02 00:26:46;;;;;;;2.10;1.90;;;;;;;19.58;65.78;100212.42;1696798;83;25885;-76
2021/07/02 00:29:13;;;;;;;2.60;2.20;;;;;;;19.53;65.83;100215.07;1732248;82;27497;-76
2021/07/02 00:31:40;;;;;;;6.45;2.33;;;;;;;19.50;65.70;100220.50;1656257;82;25878;-76
2021/07/02 00:34:07;;;;;;;3.10;1.90;;;;;;;19.49;65.89;100220.20;1703187;82;25837;-76
2021/07/02 00:36:34;;;;;;;2.15;1.95;;;;;;;19.49;65.90;100218.84;1702711;82;26497;-76
2021/07/02 00:39:01;;;;;;;3.12;1.70;;;;;;;19.49;65.87;100218.84;1732323;82;25970;-76
2021/07/02 00:41:29;;;;;;;2.62;2.08;;;;;;;19.48;65.99;100224.54;1655597;82;27367;-76
2021/07/02 00:43:57;;;;;;;3.85;2.00;;;;;;;19.47;66.15;100226.96;1702845;82;25826;-76
2021/07/02 00:46:25;;;;;;;3.37;2.15;;;;;;;19.44;66.25;100230.20;1703137;82;26485;-76
2021/07/02 00:48:52;;;;;;;1.98;1.80;;;;;;;19.39;66.36;100228.24;1708742;82;25813;-77
2021/07/02 00:51:21;;;;;;;2.25;2.02;;;;;;;19.33;66.76;100220.25;1664999;81;25861;-77
2021/07/02 00:53:49;;;;;;;2.75;1.92;;;;;;;19.29;66.73;100234.84;1726775;81;27241;-76
2021/07/02 00:56:19;;;;;;;3.55;2.37;;;;;;;19.25;66.77;100240.50;1725787;81;25700;-76
2021/07/02 00:58:48;;;;;;;3.95;2.42;;;;;;;19.28;66.94;100243.26;1752900;81;25773;-76
2021/07/02 01:01:17;;;;;;;2.90;2.70;;;;;;;19.31;66.95;100246.84;1726157;81;25937;-76
2021/07/02 01:03:48;;;;;;;3.20;2.30;;;;;;;19.27;66.99;100245.14;1725482;81;25806;-77
2021/07/02 01:06:16;;;;;;;2.45;2.25;;;;;;;19.21;67.31;100242.08;1728061;81;27630;-76
2021/07/02 01:08:44;;;;;;;4.70;2.87;;;;;;;19.11;67.91;100240.59;1753105;81;26273;-77
2021/07/02 01:11:13;;;;;;;4.28;3.87;;;;;;;19.05;67.54;100242.97;1652628;81;25849;-77
2021/07/02 01:13:41;;;;;;;4.05;2.80;;;;;;;18.98;67.76;100244.50;1724712;81;26586;-76
2021/07/02 01:16:08;;;;;;;3.17;1.92;;;;;;;18.95;68.30;100240.91;1700728;81;25812;-76
2021/07/02 01:18:40;;;;;;;4.75;3.00;;;;;;;18.91;68.08;100244.37;1752734;81;28322;-76
2021/07/02 01:21:14;;;;;;;4.22;2.90;;;;;;;18.89;68.30;100239.73;1694553;83;25892;-76
2021/07/02 01:23:42;;;;;;;3.33;3.00;;;;;;;18.83;68.32;100240.20;1696327;83;25831;-76
2021/07/02 01:26:11;;;;;;;3.37;3.10;;;;;;;18.80;68.32;100242.58;1672975;83;26328;-76
2021/07/02 01:28:38;;;;;;;3.77;3.17;;;;;;;18.79;68.60;100240.95;1674193;83;25810;-77
2021/07/02 01:31:05;;;;;;;4.35;3.95;;;;;;;18.77;68.59;100236.31;1696266;83;27464;-76
2021/07/02 01:33:32;;;;;;;3.33;3.12;;;;;;;18.78;68.49;100236.58;1722599;83;26280;-76
2021/07/02 01:36:10;;;;;;;4.22;3.20;;;;;;;18.78;68.53;100240.12;1672792;83;25888;-77
2021/07/02 01:38:38;;;;;;;3.15;2.87;;;;;;;18.75;68.65;100237.09;1696566;83;26537;-76
2021/07/02 01:41:05;;;;;;;3.33;3.12;;;;;;;18.69;68.68;100231.31;1696230;83;25817;-77
2021/07/02 01:43:32;;;;;;;3.42;2.92;;;;;;;18.71;68.60;100231.32;1722737;83;27649;-77
2021/07/02 01:46:01;;;;;;;3.60;3.17;;;;;;;18.71;68.85;100228.61;1666728;83;25961;-76
2021/07/02 01:48:28;;;;;;;3.47;2.92;;;;;;;18.67;68.58;100226.67;1673215;83;26626;-76
2021/07/02 01:50:56;;;;;;;3.42;3.12;;;;;;;18.68;68.54;100225.58;1696025;83;25933;-77
2021/07/02 01:53:23;;;;;;;4.15;2.90;;;;;;;18.71;68.59;100229.17;1725579;83;26498;-76
2021/07/02 01:55:50;;;;;;;4.92;3.30;;;;;;;18.71;68.61;100231.88;1676441;83;27594;-76
2021/07/02 01:58:18;;;;;;;3.52;3.22;;;;;;;18.67;68.54;100223.39;1677613;83;25890;-76
2021/07/02 02:00:48;;;;;;;3.72;3.30;;;;;;;18.68;68.61;100226.94;1699466;83;25983;-76
2021/07/02 02:03:16;;;;;;;3.62;3.33;;;;;;;18.68;68.60;100229.65;1725641;83;26450;-76
2021/07/02 02:05:43;;;;;;;3.55;3.22;;;;;;;18.67;68.67;100226.11;1677430;83;26542;-76
2021/07/02 02:08:11;;;;;;;4.87;3.42;;;;;;;18.65;68.70;100238.30;1677546;83;27619;-76
2021/07/02 02:10:38;;;;;;;4.55;3.52;;;;;;;18.60;68.72;100236.86;1700739;83;25788;-76
2021/07/02 02:13:06;;;;;;;4.33;3.90;;;;;;;18.62;68.73;100237.43;1725594;83;25920;-76
2021/07/02 02:15:34;;;;;;;4.08;3.42;;;;;;;18.60;68.72;100232.79;1700747;83;26568;-76
2021/07/02 02:18:01;;;;;;;3.75;3.40;;;;;;;18.57;68.87;100231.39;1655287;83;26187;-76
2021/07/02 02:20:29;;;;;;;6.03;3.65;;;;;;;18.53;68.88;100230.24;1747685;81;28133;-76
2021/07/02 02:22:56;;;;;;;3.85;3.55;;;;;;;18.50;69.11;100231.28;1755540;80;25793;-77
2021/07/02 02:25:24;;;;;;;5.60;3.70;;;;;;;18.46;69.82;100225.51;1703610;81;26562;-76
2021/07/02 02:27:51;;;;;;;4.28;3.87;;;;;;;18.41;69.21;100227.56;1729865;81;25896;-76
2021/07/02 02:30:19;;;;;;;4.12;3.65;;;;;;;18.42;69.42;100224.33;1730038;81;25389;-76
2021/07/02 02:32:46;;;;;;;4.37;3.98;;;;;;;18.38;69.46;100221.30;1757005;81;27516;-76
2021/07/02 02:35:14;;;;;;;3.83;3.52;;;;;;;18.34;69.61;100223.39;1703878;81;25783;-76
2021/07/02 02:37:42;;;;;;;7.28;4.22;;;;;;;18.34;69.99;100228.29;1730110;81;25752;-76
2021/07/02 02:40:12;;;;;;;4.62;4.22;;;;;;;18.32;69.81;100225.00;1729930;81;26655;-75
2021/07/02 02:42:39;;;;;;;4.30;3.98;;;;;;;18.33;69.90;100225.80;1730677;81;25804;-76
2021/07/02 02:45:08;;;;;;;7.95;3.47;;;;;;;18.33;69.96;100233.41;1703584;81;28187;-76
2021/07/02 02:47:36;;;;;;;4.65;3.37;;;;;;;18.35;69.96;100230.44;1719293;81;25961;-76
2021/07/02 02:50:06;;;;;;;4.10;3.77;;;;;;;18.33;69.93;100221.73;1714430;82;25871;-76
2021/07/02 02:52:33;;;;;;;4.78;4.25;;;;;;;18.34;69.99;100222.87;1707981;82;25915;-75
2021/07/02 02:55:00;;;;;;;4.15;3.67;;;;;;;18.33;70.21;100221.20;1679253;82;25873;-77
2021/07/02 02:57:27;;;;;;;4.33;3.92;;;;;;;18.29;70.17;100222.77;1677807;82;28237;-76
2021/07/02 02:59:55;;;;;;;4.87;3.52;;;;;;;18.29;70.33;100220.59;1731284;82;25330;-76
2021/07/02 03:02:22;;;;;;;5.87;4.20;;;;;;;18.23;70.44;100221.58;1694644;82;25837;-76
2021/07/02 03:04:52;;;;;;;4.78;4.12;;;;;;;18.23;70.54;100221.58;1688652;82;26401;-76
2021/07/02 03:07:19;;;;;;;5.65;4.22;;;;;;;18.24;70.81;100219.17;1691570;83;25553;-76
2021/07/02 03:09:47;;;;;;;4.25;3.85;;;;;;;18.21;70.76;100221.83;1688931;83;28332;-76
2021/07/02 03:12:15;;;;;;;5.05;3.62;;;;;;;18.23;70.79;100222.93;1672703;84;26374;-76
2021/07/02 03:14:42;;;;;;;3.72;3.42;;;;;;;18.24;70.78;100221.88;1656616;82;25997;-76
2021/07/02 03:17:10;;;;;;;4.20;3.80;;;;;;;18.25;70.82;100229.76;1669470;82;25711;-76
2021/07/02 03:19:39;;;;;;;3.98;3.58;;;;;;;18.23;70.85;100235.13;1715353;82;25909;-76
2021/07/02 03:22:07;;;;;;;5.33;3.60;;;;;;;18.20;70.76;100230.19;1697201;83;27479;-76
2021/07/02 03:24:35;;;;;;;5.45;3.45;;;;;;;18.16;70.68;100231.22;1689260;84;25885;-76
2021/07/02 03:27:03;;;;;;;3.87;3.55;;;;;;;18.20;70.81;100231.54;1677043;84;26502;-76
2021/07/02 03:29:31;;;;;;;3.87;3.17;;;;;;;18.17;70.62;100236.95;1697272;84;26531;-76
2021/07/02 03:31:58;;;;;;;3.70;3.40;;;;;;;18.15;70.68;100231.47;1663324;82;25592;-76
2021/07/02 03:34:25;;;;;;;6.42;4.95;;;;;;;18.20;70.70;100236.96;1692734;83;27457;-76
2021/07/02 03:36:54;;;;;;;6.15;4.78;;;;;;;18.22;70.74;100234.86;1678670;84;25686;-76
2021/07/02 03:39:21;;;;;;;5.10;3.98;;;;;;;18.26;70.92;100233.30;1698132;82;25846;-76
2021/07/02 03:41:48;;;;;;;5.65;3.85;;;;;;;18.22;70.81;100237.02;1676598;84;26462;-75
2021/07/02 03:44:17;;;;;;;7.87;3.60;;;;;;;18.21;70.91;100239.45;1655978;84;25728;-76
2021/07/02 03:46:44;;;;;;;5.30;4.62;;;;;;;18.23;70.95;100239.20;1653936;82;28285;-76
2021/07/02 03:49:11;;;;;;;6.03;4.40;;;;;;;18.24;71.03;100244.36;1694192;84;26475;-76
2021/07/02 03:51:39;;;;;;;6.60;5.03;;;;;;;18.21;71.34;100237.27;1683841;81;26637;-76
2021/07/02 03:54:06;;;;;;;5.25;4.75;;;;;;;18.14;71.34;100248.27;1696581;81;25874;-76
2021/07/02 03:56:33;;;;;;;6.87;5.45;;;;;;;18.11;71.60;100250.66;1695292;81;26309;-76
2021/07/02 03:59:00;;;;;;;8.33;5.67;;;;;;;18.07;71.68;100255.72;1737289;81;27529;-75
2021/07/02 04:01:27;;;;;;;6.37;5.25;;;;;;;18.01;71.71;100248.56;1676388;83;26098;-76
2021/07/02 04:03:54;;;;;;;7.67;5.20;;;;;;;17.98;71.76;100247.72;1677233;83;25816;-75
2021/07/02 04:06:21;;;;;;;5.20;4.37;;;;;;;18.00;72.19;100253.72;1676058;83;25871;-76
2021/07/02 04:08:48;;;;;;;10.48;6.30;;;;;;;18.01;72.14;100251.80;1700661;83;25843;-75
2021/07/02 04:11:15;;;;;;;7.05;5.72;;;;;;;17.97;72.19;100246.58;1676246;83;27463;-75
2021/07/02 04:13:43;;;;;;;7.87;4.92;;;;;;;17.95;72.23;100248.19;1676598;83;25839;-77
2021/07/02 04:16:10;;;;;;;7.95;5.60;;;;;;;17.98;72.28;100241.47;1676631;83;25807;-76
2021/07/02 04:18:37;;;;;;;6.20;4.75;;;;;;;17.98;72.04;100247.72;1700203;83;25870;-76
2021/07/02 04:21:04;;;;;;;8.38;6.22;;;;;;;17.98;72.32;100235.52;1674382;83;26105;-76
2021/07/02 04:23:31;;;;;;;7.90;6.40;;;;;;;17.97;72.27;100235.74;1707090;83;27459;-75
2021/07/02 04:25:58;;;;;;;13.40;7.90;;;;;;;17.94;72.22;100239.75;1707233;83;25862;-76
2021/07/02 04:28:25;;;;;;;6.70;5.75;;;;;;;17.93;72.40;100240.01;1707279;83;25845;-76
2021/07/02 04:30:52;;;;;;;11.85;6.62;;;;;;;17.90;72.44;100235.89;1708141;83;25827;-76
2021/07/02 04:33:19;;;;;;;10.15;7.08;;;;;;;17.88;72.59;100229.89;1684258;82;26019;-76
2021/07/02 04:35:46;;;;;;;9.70;6.65;;;;;;;17.85;72.60;100240.41;1676046;83;27376;-75
2021/07/02 04:38:13;;;;;;;11.80;7.17;;;;;;;17.82;72.73;100244.42;1756038;81;26218;-76
2021/07/02 04:40:40;;;;;;;12.58;7.00;;;;;;;17.79;72.87;100238.67;1684544;83;25839;-76
2021/07/02 04:43:07;;;;;;;12.47;8.18;;;;;;;17.79;73.06;100234.61;1684082;83;26625;-76
2021/07/02 04:45:34;;;;;;;10.85;7.58;;;;;;;17.79;73.05;100236.80;1683994;82;25869;-76
2021/07/02 04:48:01;;;;;;;11.10;8.43;;;;;;;17.83;73.11;100240.66;1722688;83;27519;-76
2021/07/02 04:50:28;;;;;;;8.95;8.03;;;;;;;17.85;73.38;100246.66;1684439;83;26573;-76
2021/07/02 04:52:55;;;;;;;14.38;10.55;;;;;;;17.85;73.34;100252.08;1704418;83;25937;-76
2021/07/02 04:55:23;;;;;;;13.35;10.82;;;;;;;17.86;73.35;100254.23;1654188;83;26082;-76
2021/07/02 04:57:50;;;;;;;14.20;10.03;;;;;;;17.87;73.32;100255.89;1700508;83;25882;-75
2021/07/02 05:00:18;;;;;;;19.98;12.73;;;;;;;17.88;73.34;100265.68;1676475;83;28737;-75
2021/07/02 05:02:45;;;;;;;17.60;12.68;;;;;;;17.89;73.52;100264.59;1699672;83;25797;-74
2021/07/02 05:05:12;;;;;;;16.90;12.45;;;;;;;17.92;73.41;100268.98;1677005;83;25870;-76
2021/07/02 05:07:40;;;;;;;18.05;13.32;;;;;;;17.91;73.38;100271.42;1719318;83;25774;-76
2021/07/02 05:10:08;;;;;;;20.10;14.98;;;;;;;17.91;73.38;100271.42;1677347;83;26555;-76
2021/07/02 05:12:36;;;;;;;21.23;15.28;;;;;;;17.92;73.38;100274.96;1700247;83;27483;-75
2021/07/02 05:15:05;;;;;;;19.82;15.83;;;;;;;17.97;73.61;100278.58;1676976;83;26660;-76
2021/07/02 05:17:33;;;;;;;20.95;16.27;;;;;;;18.00;73.32;100276.75;1719259;83;26576;-75
2021/07/02 05:20:00;;;;;;;26.75;17.77;;;;;;;18.05;73.14;100284.16;1667492;84;26470;-76
2021/07/02 05:22:29;;;;;;;23.75;17.05;;;;;;;18.09;73.13;100284.75;1639701;84;25828;-75
2021/07/02 05:24:56;;;;;;;32.13;19.00;;;;;;;18.12;72.99;100281.58;1649939;84;28235;-75
2021/07/02 05:27:23;;;;;;;27.35;19.87;;;;;;;18.08;72.93;100289.91;1690169;84;25574;-76
2021/07/02 05:29:51;;;;;;;29.85;19.80;;;;;;;18.07;72.99;100289.60;1666409;83;25835;-75
2021/07/02 05:32:18;;;;;;;28.15;19.50;;;;;;;18.05;72.93;100297.16;1637160;84;26659;-75
2021/07/02 05:34:45;;;;;;;32.53;21.77;;;;;;;18.06;73.07;100292.56;1688715;83;25740;-75
2021/07/02 05:37:12;;;;;;;27.82;21.40;;;;;;;18.05;73.11;100293.64;1687244;84;27547;-75
2021/07/02 05:39:39;;;;;;;32.90;21.60;;;;;;;18.03;73.07;100290.33;1649510;84;25899;-75
2021/07/02 05:42:06;;;;;;;34.63;22.30;;;;;;;17.99;73.04;100289.17;1649386;84;26382;-75
2021/07/02 05:44:33;;;;;;;31.60;23.35;;;;;;;17.98;73.35;100291.08;1649242;84;26347;-75
2021/07/02 05:47:00;;;;;;;32.90;24.12;;;;;;;17.99;73.17;100290.52;1690201;84;26578;-75
2021/07/02 05:49:28;;;;;;;32.10;22.48;;;;;;;17.98;73.32;100288.37;1649310;84;27487;-74
2021/07/02 05:51:55;;;;;;;36.30;23.95;;;;;;;17.98;73.48;100292.96;1671848;84;25862;-75
2021/07/02 05:54:22;;;;;;;32.08;23.22;;;;;;;17.98;73.36;100288.89;1649334;84;25922;-76
2021/07/02 05:56:51;;;;;;;35.43;25.40;;;;;;;17.99;73.42;100288.64;1690236;84;25919;-75
2021/07/02 05:59:18;;;;;;;34.53;24.10;;;;;;;18.02;73.73;100287.34;1666460;83;25799;-75
2021/07/02 06:01:45;;;;;;;39.45;26.15;;;;;;;18.05;73.42;100289.58;1648820;84;27546;-76
2021/07/02 06:04:12;;;;;;;33.28;24.57;;;;;;;18.04;73.13;100285.20;1648484;84;25788;-75
2021/07/02 06:06:39;;;;;;;34.25;24.72;;;;;;;18.06;73.65;100288.50;1671156;84;25835;-76
2021/07/02 06:09:06;;;;;;;33.23;22.02;;;;;;;18.07;73.80;100282.03;1671913;84;26526;-75
2021/07/02 06:11:33;;;;;;;28.90;19.95;;;;;;;18.11;73.58;100281.83;1649204;84;25773;-76
2021/07/02 06:14:00;;;;;;;33.25;22.17;;;;;;;18.14;73.55;100282.16;1648902;84;27527;-75
2021/07/02 06:16:27;;;;;;;30.12;21.48;;;;;;;18.10;73.23;100291.01;1689877;84;25900;-75
2021/07/02 06:18:54;;;;;;;28.67;20.60;;;;;;;18.07;73.33;100290.95;1665815;83;26220;-75
2021/07/02 06:21:21;;;;;;;27.27;20.30;;;;;;;18.11;73.50;100289.95;1663983;83;26480;-75
2021/07/02 06:23:48;;;;;;;25.77;19.67;;;;;;;18.15;73.58;100287.87;1676628;83;25857;-76
2021/07/02 06:26:16;;;;;;;24.82;18.80;;;;;;;18.19;73.76;100296.34;1718475;83;27619;-75
2021/07/02 06:28:43;;;;;;;27.02;18.15;;;;;;;18.16;73.46;100291.39;1676423;83;26493;-75
2021/07/02 06:31:11;;;;;;;25.35;18.17;;;;;;;18.14;73.63;100298.41;1699343;83;25824;-76
2021/07/02 06:33:38;;;;;;;27.77;17.55;;;;;;;18.16;73.43;100305.77;1718145;83;25782;-75
2021/07/02 06:36:05;;;;;;;20.60;17.27;;;;;;;18.17;73.45;100302.01;1676292;83;25810;-75
2021/07/02 06:38:32;;;;;;;23.70;18.02;;;;;;;18.16;73.57;100306.30;1667927;83;27475;-76
2021/07/02 06:40:59;;;;;;;25.37;18.52;;;;;;;18.16;73.62;100305.77;1700924;83;26462;-77
2021/07/02 06:43:26;;;;;;;23.95;17.30;;;;;;;18.18;73.64;100309.06;1718926;83;25761;-76
2021/07/02 06:45:53;;;;;;;27.37;19.10;;;;;;;18.22;73.66;100307.50;1653788;83;26439;-75
2021/07/02 06:48:20;;;;;;;26.62;18.82;;;;;;;18.23;73.57;100305.09;1688935;83;25731;-76
2021/07/02 06:50:47;;;;;;;24.20;18.02;;;;;;;18.21;73.24;100311.83;1694168;82;27552;-76
2021/07/02 06:53:15;;;;;;;27.95;18.82;;;;;;;18.22;73.36;100306.70;1718485;82;25972;-75
2021/07/02 06:55:42;;;;;;;26.65;19.37;;;;;;;18.21;73.26;100312.66;1654272;83;25776;-75
2021/07/02 06:58:09;;;;;;;33.08;20.82;;;;;;;18.20;73.43;100310.99;1644719;83;26404;-76
2021/07/02 07:00:40;;;;;;;24.12;18.57;;;;;;;18.23;73.48;100307.81;1700384;82;25729;-76
2021/07/02 07:03:08;;;;;;;;;;;;;;;18.31;73.68;100299.80;1721718;83;28312;-76
2021/07/02 07:05:37;;;;;;;21.97;16.17;;;;;;;18.41;73.68;100304.06;1724495;82;25321;-76
2021/07/02 07:08:06;;;;;;;23.95;17.15;;;;;;;18.43;73.51;100304.08;1676933;82;26678;-77
2021/07/02 07:10:35;;;;;;;25.43;17.73;;;;;;;18.48;73.40;100297.16;1719139;83;25917;-76
2021/07/02 07:13:06;;;;;;;22.58;16.32;;;;;;;18.48;73.12;100297.43;1699904;83;25864;-76
2021/07/02 07:15:34;;;;;;;22.45;16.50;;;;;;;18.48;73.11;100295.25;1656196;83;28326;-76
2021/07/02 07:18:02;;;;;;;22.37;16.73;;;;;;;18.54;73.25;100298.89;1676942;83;25799;-76
2021/07/02 07:20:29;;;;;;;19.40;15.45;;;;;;;18.52;72.93;100301.02;1718861;82;25518;-75
2021/07/02 07:22:56;;;;;;;18.20;14.38;;;;;;;18.54;73.41;100302.95;1698666;83;26377;-76
2021/07/02 07:25:24;;;;;;;18.48;13.90;;;;;;;18.59;73.03;100305.20;1654502;83;25797;-75
2021/07/02 07:27:52;;;;;;;14.53;12.10;;;;;;;18.64;72.83;100303.11;1694660;83;27645;-76
2021/07/02 07:30:20;;;;;;;18.30;13.95;;;;;;;18.67;72.83;100300.72;1719434;83;25842;-76
2021/07/02 07:32:50;;;;;;;16.02;13.40;;;;;;;18.70;72.56;100304.31;1698847;83;25809;-76
2021/07/02 07:35:22;;;;;;;22.02;14.68;;;;;;;18.64;72.59;100303.94;1655485;83;25947;-75
2021/07/02 07:37:51;;;;;;;20.48;15.20;;;;;;;18.64;72.51;100304.47;1676137;83;25780;-75
2021/07/02 07:40:16;;;;;;;19.17;14.45;;;;;;;18.64;72.42;100297.69;1719406;83;27434;-76
2021/07/02 07:42:43;;;;;;;17.67;14.80;;;;;;;18.69;72.74;100293.16;1698558;83;26545;-76
2021/07/02 07:45:11;;;;;;;17.70;14.23;;;;;;;18.67;72.55;100288.51;1654283;83;25919;-75
2021/07/02 07:47:38;;;;;;;15.58;13.32;;;;;;;18.66;72.44;100290.95;1694085;83;25880;-76
2021/07/02 07:50:10;;;;;;;18.05;14.87;;;;;;;18.62;72.57;100287.09;1718073;83;25848;-77
2021/07/02 07:52:46;;;;;;;23.70;14.53;;;;;;;18.63;72.45;100285.17;1698496;83;28219;-76
2021/07/02 07:55:12;;;;;;;16.55;12.30;;;;;;;18.63;72.55;100279.22;1679850;83;25839;-76
2021/07/02 07:57:39;;;;;;;16.48;12.03;;;;;;;18.70;72.69;100273.63;1694458;83;25831;-77
2021/07/02 08:00:08;;;;;;;13.80;11.93;;;;;;;18.76;72.65;100269.39;1718545;81;25849;-77
2021/07/02 08:02:35;;;;;;;22.93;14.13;;;;;;;18.85;73.40;100269.27;1698130;83;25823;-76
2021/07/02 08:05:04;;;;;;;23.55;15.48;;;;;;;18.93;72.82;100270.20;1676391;83;27471;-76
2021/07/02 08:07:37;;;;;;;17.37;13.88;;;;;;;18.95;72.53;100276.73;1694939;83;25826;-76
2021/07/02 08:10:07;;;;;;;19.35;14.25;;;;;;;18.98;72.41;100272.17;1718742;83;25678;-77
2021/07/02 08:12:35;;;;;;;15.45;11.80;;;;;;;19.01;72.68;100279.27;1691069;83;25993;-77
2021/07/02 08:15:04;;;;;;;17.07;12.45;;;;;;;18.97;72.67;100276.77;1674323;83;25729;-76
2021/07/02 08:17:32;;;;;;;16.95;13.50;;;;;;;18.89;72.21;100279.09;1654891;83;27553;-76
2021/07/02 08:19:59;;;;;;;18.42;13.50;;;;;;;18.85;72.34;100277.94;1706766;83;25738;-77
2021/07/02 08:22:27;;;;;;;15.75;12.50;;;;;;;18.83;72.48;100280.08;1683552;84;26598;-76
2021/07/02 08:24:55;;;;;;;17.15;13.38;;;;;;;18.85;72.62;100278.77;1665919;82;25957;-77
2021/07/02 08:27:24;;;;;;;24.18;15.98;;;;;;;18.87;72.82;100266.30;1708650;82;25939;-77
2021/07/02 08:29:51;;;;;;;19.07;13.72;;;;;;;18.92;72.87;100281.31;1736173;82;27610;-77
2021/07/02 08:32:18;;;;;;;15.43;12.30;;;;;;;18.98;72.80;100278.43;1722401;82;25896;-76
2021/07/02 08:34:45;;;;;;;19.48;14.28;;;;;;;19.00;72.88;100283.07;1667551;82;25853;-76
2021/07/02 08:37:13;;;;;;;20.25;14.70;;;;;;;19.01;72.62;100285.26;1705600;82;25906;-76
2021/07/02 08:39:40;;;;;;;22.10;14.85;;;;;;;19.03;72.70;100293.41;1734876;82;26545;-76
2021/07/02 08:42:09;;;;;;;17.30;13.78;;;;;;;19.06;72.92;100292.92;1699219;82;27363;-75
2021/07/02 08:44:36;;;;;;;17.48;13.70;;;;;;;19.08;72.74;100287.23;1654459;83;25895;-77
2021/07/02 08:47:04;;;;;;;17.35;14.10;;;;;;;19.09;72.63;100286.19;1674136;83;26615;-76
2021/07/02 08:49:32;;;;;;;17.20;13.40;;;;;;;19.11;72.66;100279.44;1713528;82;25974;-76
2021/07/02 08:52:00;;;;;;;25.77;16.12;;;;;;;19.14;72.90;100283.52;1671590;83;25870;-76
2021/07/02 08:54:27;;;;;;;23.27;16.40;;;;;;;19.17;72.72;100283.03;1663046;84;27584;-77
2021/07/02 08:56:58;;;;;;;19.98;15.78;;;;;;;19.21;72.62;100286.89;1715985;83;25813;-77
2021/07/02 08:59:29;;;;;;;18.17;15.40;;;;;;;19.24;72.40;100291.83;1690027;84;25736;-76
2021/07/02 09:01:57;;;;;;;18.80;15.43;;;;;;;19.25;72.50;100299.72;1663659;84;26522;-77
2021/07/02 09:04:30;;;;;;;19.15;15.20;;;;;;;19.29;72.48;100299.23;1638863;84;25379;-76
2021/07/02 09:07:10;;;;;;;22.55;17.57;;;;;;;19.32;72.45;100299.54;1642199;84;27469;-77
2021/07/02 09:09:55;;;;;;;19.75;15.60;;;;;;;19.41;72.24;100310.83;1690211;84;25316;-77
2021/07/02 09:12:32;;;;;;;20.40;16.80;;;;;;;19.48;72.38;100309.55;1663677;84;25855;-77
2021/07/02 09:15:13;;;;;;;21.75;16.27;;;;;;;19.51;72.08;100304.98;1692712;83;26954;-77
2021/07/02 09:17:54;;;;;;;17.75;15.63;;;;;;;19.60;72.42;100312.99;1661496;84;25714;-77
2021/07/02 09:20:36;;;;;;;18.95;15.40;;;;;;;19.64;72.02;100311.41;1687092;84;27459;-77
2021/07/02 09:23:07;;;;;;;18.85;14.35;;;;;;;19.68;71.92;100310.36;1669540;84;26475;-77
2021/07/02 09:25:40;;;;;;;18.67;13.85;;;;;;;19.65;71.80;100311.67;1649354;84;26112;-77
2021/07/02 09:28:11;;;;;;;19.82;13.95;;;;;;;19.62;71.64;100307.30;1703609;83;25831;-77
2021/07/02 09:30:42;;;;;;;18.50;13.50;;;;;;;19.63;72.22;100303.52;1696859;84;25828;-77
2021/07/02 09:33:22;;;;;;;19.07;12.25;;;;;;;19.69;71.97;100317.45;1694957;83;27474;-76
2021/07/02 09:35:58;;;;;;;18.02;12.28;;;;;;;19.67;71.66;100311.45;1659231;84;25928;-76
2021/07/02 09:38:37;;;;;;;16.42;11.95;;;;;;;19.66;71.79;100313.34;1703633;83;25325;-76
2021/07/02 09:41:07;;;;;;;15.08;11.78;;;;;;;19.68;71.96;100307.64;1696343;84;26397;-77
2021/07/02 09:43:34;;;;;;;16.97;11.27;;;;;;;19.72;72.15;100309.59;1680120;84;25868;-77
2021/07/02 09:46:04;;;;;;;16.50;11.65;;;;;;;19.78;71.84;100307.22;1621936;84;27655;-77
2021/07/02 09:48:35;;;;;;;16.30;13.22;;;;;;;19.84;72.19;100309.48;1680482;84;26572;-76
2021/07/02 09:51:06;;;;;;;14.03;11.95;;;;;;;19.86;71.69;100314.13;1696074;84;25832;-77
2021/07/02 09:53:37;;;;;;;39.25;28.50;;;;;;;19.82;71.68;100309.71;1683329;82;25860;-77
2021/07/02 09:56:09;;;;;;;17.52;14.70;;;;;;;19.85;71.51;100316.55;1655844;84;26372;-76
2021/07/02 09:58:39;;;;;;;13.60;11.73;;;;;;;19.83;71.41;100319.52;1692732;83;28128;-77
2021/07/02 10:01:10;;;;;;;16.07;12.87;;;;;;;19.76;71.45;100317.53;1720347;83;25881;-77
2021/07/02 10:03:41;;;;;;;18.50;14.95;;;;;;;19.76;71.54;100327.04;1693320;83;25845;-76
2021/07/02 10:06:14;;;;;;;;;;;;;;;19.76;71.51;100322.16;1669111;83;26676;-76
2021/07/02 10:08:39;;;;;;;13.50;11.78;;;;;;;19.74;71.46;100324.28;1719587;81;26381;-77
2021/07/02 10:11:12;;;;;;;17.37;13.15;;;;;;;19.73;71.69;100324.02;1670112;83;28332;-78
2021/07/02 10:13:43;;;;;;;17.05;12.95;;;;;;;19.76;71.61;100320.80;1669923;83;26552;-77
2021/07/02 10:16:12;;;;;;;15.53;12.53;;;;;;;19.83;71.87;100318.70;1667112;83;25861;-76
2021/07/02 10:18:56;;;;;;;17.50;13.58;;;;;;;19.99;72.05;100316.45;1720154;82;25873;-77
2021/07/02 10:21:24;;;;;;;18.92;13.78;;;;;;;20.19;71.99;100314.50;1687111;84;25971;-76
2021/07/02 10:23:55;;;;;;;14.87;12.05;;;;;;;20.40;71.76;100309.00;1707833;83;27463;-77
2021/07/02 10:26:25;;;;;;;14.75;12.65;;;;;;;20.54;70.77;100302.08;1661239;84;25897;-76
2021/07/02 10:28:53;;;;;;;14.30;12.13;;;;;;;20.65;70.32;100302.98;1702968;84;25734;-76
2021/07/02 10:31:20;;;;;;;15.53;12.45;;;;;;;20.78;69.96;100294.91;1661686;84;26305;-77
2021/07/02 10:33:53;;;;;;;13.58;10.68;;;;;;;20.92;70.59;100298.28;1677021;84;25913;-77
2021/07/02 10:36:21;;;;;;;16.50;11.78;;;;;;;21.09;69.88;100296.25;1677074;84;28307;-77
2021/07/02 10:38:51;;;;;;;14.05;11.08;;;;;;;21.20;70.06;100297.14;1697148;83;25826;-77
2021/07/02 10:41:31;;;;;;;15.30;12.17;;;;;;;21.19;69.57;100296.31;1655130;84;25792;-77
2021/07/02 10:44:07;;;;;;;11.65;10.38;;;;;;;21.16;69.29;100298.75;1676536;84;26474;-77
2021/07/02 10:46:39;;;;;;;14.43;10.78;;;;;;;21.14;68.55;100303.64;1653132;84;25865;-78
2021/07/02 10:49:11;;;;;;;16.45;12.10;;;;;;;21.04;68.37;100304.95;1697250;84;27536;-77
2021/07/02 10:51:43;;;;;;;13.55;11.60;;;;;;;20.94;68.23;100308.91;1676614;84;26308;-76
2021/07/02 10:54:16;;;;;;;17.27;13.43;;;;;;;20.85;68.43;100315.94;1701377;83;25705;-77
2021/07/02 10:57:00;;;;;;;15.58;13.88;;;;;;;20.77;68.49;100314.50;1690738;83;26011;-76
2021/07/02 10:59:42;;;;;;;17.15;12.45;;;;;;;20.74;68.80;100311.75;1715831;83;25791;-76
2021/07/02 11:02:15;;;;;;;14.53;12.70;;;;;;;20.75;68.67;100313.95;1690864;83;27591;-77
2021/07/02 11:04:46;;;;;;;16.62;14.03;;;;;;;20.74;68.86;100312.32;1715690;83;25765;-77
2021/07/02 11:07:21;;;;;;;16.32;13.30;;;;;;;20.74;68.63;100310.39;1667872;83;26520;-76
2021/07/02 11:09:58;;;;;;;17.32;14.23;;;;;;;20.69;68.71;100317.17;1715775;83;26594;-76
2021/07/02 11:12:36;;;;;;;18.35;14.18;;;;;;;20.64;68.72;100314.41;1690216;83;25842;-76
2021/07/02 11:15:10;;;;;;;16.20;14.35;;;;;;;20.58;69.06;100320.06;1691185;83;27161;-77
2021/07/02 11:18:07;;;;;;;16.57;12.82;;;;;;;20.55;69.56;100317.88;1666629;83;25902;-77
2021/07/02 11:20:34;;;;;;;16.48;14.25;;;;;;;20.54;69.56;100317.58;1721673;82;25832;-78
2021/07/02 11:23:15;;;;;;;19.15;15.32;;;;;;;20.53;69.77;100316.75;1695904;82;26721;-77
2021/07/02 11:25:51;;;;;;;17.70;15.75;;;;;;;20.49;69.82;100316.16;1720104;82;25767;-77